Welcome to Northern Hawkes Bay. New Zealand.
PWS Header
      nz Flag



Hit Counter


W3C Valid W3C Valid logo


    Wairoa

Select any of the Stations below to visit their websites.










Historic Data from Weather Underground
Select the location of interest below. Wairoa is the default. Please have patience, this Data is slow to load in.
Northern Hawkes Bay Historical Data
Daily Summary for June 14, 2017 Units:  Metric    English   Both
« Previous Day
Next Day »
Daily Weekly Monthly Yearly Custom
  High: Low: Average:
Temperature: 14.6 °C 8.4 °C 11.9 °C
Dew Point: 8.7 °C 0.4 °C 4.1 °C
Humidity: 80% 41% 60%
Wind Speed: 45.4km/h 0.0km/h 13.4km/h
Wind Gust: 61.1km/h - -
Wind- - West
Pressure: 1018.8 hPa 1002.9 hPa -
Precipitation: 0.0 mm    
Historical Graphs
 
 
Tabular Data for June 14, 2017
Time Temperature Dew Point Pressure Wind Wind Speed Wind Gust Humidity Rainfall Rate (Hourly) solar
00:00 12.5 °C 8.2 °C 1005.6 hPa ENE 1.1 km/h 5.0 km/h 75% 0.0 mm 0 W/m2
00:05 12.5 °C 8.4 °C 1005.6 hPa ENE 1.1 km/h 6.1 km/h 76% 0.0 mm 0 W/m2
00:10 12.6 °C 8.5 °C 1005.6 hPa NE 3.5 km/h 9.7 km/h 76% 0.0 mm 0 W/m2
00:15 12.6 °C 8.5 °C 1005.3 hPa ENE 5.0 km/h 9.7 km/h 76% 0.0 mm 0 W/m2
00:20 12.7 °C 8.4 °C 1005.6 hPa ENE 2.6 km/h 9.7 km/h 75% 0.0 mm 0 W/m2
00:25 13.0 °C 8.7 °C 1005.6 hPa ENE 2.6 km/h 8.7 km/h 75% 0.0 mm 0 W/m2
00:30 13.2 °C 8.4 °C 1005.6 hPa Calm   7.2 km/h 73% 0.0 mm 0 W/m2
00:35 13.0 °C 8.3 °C 1005.6 hPa ENE 1.1 km/h 5.0 km/h 73% 0.0 mm 0 W/m2
00:40 13.0 °C 8.3 °C 1005.3 hPa Calm   5.0 km/h 73% 0.0 mm 0 W/m2
00:45 13.0 °C 8.1 °C 1005.3 hPa NE 1.1 km/h 5.0 km/h 72% 0.0 mm 0 W/m2
00:50 12.9 °C 8.0 °C 1005.6 hPa NE 1.1 km/h 3.5 km/h 72% 0.0 mm 0 W/m2
00:55 12.6 °C 7.9 °C 1005.3 hPa NNW 1.1 km/h 3.5 km/h 73% 0.0 mm 0 W/m2
01:00 12.3 °C 7.6 °C 1005.3 hPa NNW 2.6 km/h 3.5 km/h 73% 0.0 mm 0 W/m2
01:05 12.0 °C 7.5 °C 1005.3 hPa NNW 2.6 km/h 5.0 km/h 74% 0.0 mm 0 W/m2
01:10 11.9 °C 7.8 °C 1005.0 hPa NW 2.6 km/h 7.2 km/h 76% 0.0 mm 0 W/m2
01:14 11.5 °C 7.6 °C 1005.0 hPa NW 3.5 km/h 7.2 km/h 77% 0.0 mm 0 W/m2
01:19 11.5 °C 7.8 °C 1005.0 hPa NW 2.6 km/h 7.2 km/h 78% 0.0 mm 0 W/m2
01:24 11.5 °C 7.6 °C 1005.0 hPa NW 2.6 km/h 7.2 km/h 77% 0.0 mm 0 W/m2
01:29 11.1 °C 7.2 °C 1005.0 hPa Calm   6.1 km/h 77% 0.0 mm 0 W/m2
01:34 10.8 °C 7.3 °C 1005.0 hPa Calm   5.0 km/h 79% 0.0 mm 0 W/m2
01:39 10.6 °C 7.3 °C 1005.0 hPa Calm   2.6 km/h 80% 0.0 mm 0 W/m2
01:40 10.6 °C 7.3 °C 1005.0 hPa WNW 6.1 km/h 9.7 km/h 80% 0.0 mm 0 W/m2
01:45 11.0 °C 7.3 °C 1005.0 hPa West 1.1 km/h 9.7 km/h 78% 0.0 mm 0 W/m2
01:50 11.3 °C 7.2 °C 1005.3 hPa West 2.6 km/h 9.7 km/h 76% 0.0 mm 0 W/m2
01:55 11.6 °C 7.1 °C 1005.3 hPa WNW 2.6 km/h 6.1 km/h 74% 0.0 mm 0 W/m2
02:00 11.5 °C 6.8 °C 1005.3 hPa Calm   6.1 km/h 73% 0.0 mm 0 W/m2
02:05 11.0 °C 6.3 °C 1005.0 hPa NW 5.0 km/h 7.2 km/h 73% 0.0 mm 0 W/m2
02:10 11.5 °C 6.6 °C 1004.6 hPa NW 5.0 km/h 18.3 km/h 72% 0.0 mm 0 W/m2
02:15 12.0 °C 6.3 °C 1004.6 hPa NW 6.1 km/h 18.3 km/h 68% 0.0 mm 0 W/m2
02:21 11.6 °C 6.3 °C 1004.3 hPa NW 5.0 km/h 9.7 km/h 70% 0.0 mm 0 W/m2
02:26 11.5 °C 6.2 °C 1004.3 hPa NNW 11.1 km/h 20.9 km/h 70% 0.0 mm 0 W/m2
02:31 12.9 °C 6.5 °C 1003.9 hPa NNW 15.8 km/h 24.5 km/h 65% 0.0 mm 0 W/m2
02:36 13.6 °C 6.2 °C 1003.9 hPa NNW 14.8 km/h 28.0 km/h 61% 0.0 mm 0 W/m2
02:41 13.9 °C 6.0 °C 1003.9 hPa NW 13.4 km/h 28.0 km/h 59% 0.0 mm 0 W/m2
02:46 13.9 °C 5.8 °C 1003.9 hPa NW 11.1 km/h 28.0 km/h 58% 0.0 mm 0 W/m2
02:51 13.9 °C 5.5 °C 1003.6 hPa NNW 13.4 km/h 27.0 km/h 57% 0.0 mm 0 W/m2
02:56 14.1 °C 5.4 °C 1003.6 hPa NNW 21.9 km/h 28.0 km/h 56% 0.0 mm 0 W/m2
03:01 13.9 °C 5.5 °C 1003.3 hPa NNW 14.8 km/h 28.0 km/h 57% 0.0 mm 0 W/m2
03:06 13.9 °C 5.5 °C 1003.3 hPa NNW 18.3 km/h 33.1 km/h 57% 0.0 mm 0 W/m2
03:11 14.2 °C 5.6 °C 1002.9 hPa NW 13.4 km/h 36.7 km/h 56% 0.0 mm 0 W/m2
03:16 14.2 °C 5.6 °C 1002.9 hPa NW 15.8 km/h 36.7 km/h 56% 0.0 mm 0 W/m2
03:21 14.2 °C 5.6 °C 1002.9 hPa NW 19.5 km/h 41.7 km/h 56% 0.0 mm 0 W/m2
03:26 14.1 °C 5.4 °C 1002.9 hPa NW 19.5 km/h 41.7 km/h 56% 0.0 mm 0 W/m2
03:31 14.0 °C 5.4 °C 1002.9 hPa NW 19.5 km/h 31.7 km/h 56% 0.0 mm 0 W/m2
03:41 14.1 °C 5.2 °C 1003.3 hPa NW 14.8 km/h 45.4 km/h 55% 0.0 mm 0 W/m2
03:46 14.0 °C 5.1 °C 1003.3 hPa NW 19.5 km/h 45.4 km/h 55% 0.0 mm 0 W/m2
03:51 14.0 °C 5.1 °C 1003.3 hPa NW 31.7 km/h 42.8 km/h 55% 0.0 mm 0 W/m2
03:56 14.1 °C 5.2 °C 1003.6 hPa NW 15.8 km/h 42.8 km/h 55% 0.0 mm 0 W/m2
04:01 13.9 °C 5.3 °C 1003.6 hPa WNW 15.8 km/h 42.8 km/h 56% 0.0 mm 0 W/m2
04:06 13.9 °C 5.5 °C 1003.6 hPa NW 7.2 km/h 28.0 km/h 57% 0.0 mm 0 W/m2
04:11 13.7 °C 5.3 °C 1003.9 hPa WNW 21.9 km/h 36.7 km/h 57% 0.0 mm 0 W/m2
04:16 14.0 °C 5.4 °C 1003.9 hPa WNW 11.1 km/h 36.7 km/h 56% 0.0 mm 0 W/m2
04:21 14.1 °C 5.4 °C 1003.9 hPa WNW 12.2 km/h 36.7 km/h 56% 0.0 mm 0 W/m2
04:26 14.5 °C 5.6 °C 1004.3 hPa WNW 15.8 km/h 33.1 km/h 55% 0.0 mm 0 W/m2
04:31 14.6 °C 5.9 °C 1004.6 hPa West 19.5 km/h 45.4 km/h 56% 0.0 mm 0 W/m2
04:36 14.0 °C 6.8 °C 1004.6 hPa WNW 18.3 km/h 45.4 km/h 62% 0.0 mm 0 W/m2
04:41 13.7 °C 7.2 °C 1005.0 hPa West 9.7 km/h 36.7 km/h 65% 0.0 mm 0 W/m2
04:46 13.3 °C 7.1 °C 1005.0 hPa WNW 13.4 km/h 36.7 km/h 66% 0.0 mm 0 W/m2
04:51 13.4 °C 7.4 °C 1005.0 hPa WNW 13.4 km/h 29.4 km/h 67% 0.0 mm 0 W/m2
04:56 13.3 °C 7.3 °C 1005.0 hPa West 17.2 km/h 28.0 km/h 67% 0.0 mm 0 W/m2
05:01 13.4 °C 7.4 °C 1005.0 hPa West 13.4 km/h 28.0 km/h 67% 0.0 mm 0 W/m2
05:06 13.2 °C 7.4 °C 1005.3 hPa West 18.3 km/h 39.3 km/h 68% 0.0 mm 0 W/m2
05:11 12.7 °C 7.6 °C 1005.3 hPa WSW 13.4 km/h 39.3 km/h 71% 0.0 mm 0 W/m2
05:16 12.3 °C 7.6 °C 1005.6 hPa WSW 11.1 km/h 29.4 km/h 73% 0.0 mm 0 W/m2
05:21 12.1 °C 7.6 °C 1005.6 hPa West 9.7 km/h 24.5 km/h 74% 0.0 mm 0 W/m2
05:26 11.9 °C 7.8 °C 1006.0 hPa West 8.7 km/h 17.2 km/h 76% 0.0 mm 0 W/m2
05:31 11.8 °C 7.5 °C 1006.0 hPa WNW 12.2 km/h 30.6 km/h 75% 0.0 mm 0 W/m2
05:36 11.5 °C 7.1 °C 1006.3 hPa WNW 18.3 km/h 33.1 km/h 74% 0.0 mm 0 W/m2
05:41 11.4 °C 6.7 °C 1006.7 hPa West 8.7 km/h 33.1 km/h 73% 0.0 mm 0 W/m2
05:46 11.2 °C 6.6 °C 1006.7 hPa West 21.9 km/h 31.7 km/h 73% 0.0 mm 0 W/m2
05:51 11.5 °C 5.8 °C 1006.7 hPa West 14.8 km/h 33.1 km/h 68% 0.0 mm 0 W/m2
05:56 11.7 °C 5.1 °C 1006.7 hPa WSW 13.4 km/h 33.1 km/h 64% 0.0 mm 0 W/m2
06:01 11.6 °C 4.8 °C 1006.7 hPa WSW 13.4 km/h 30.6 km/h 63% 0.0 mm 0 W/m2
06:20 12.0 °C 3.2 °C 1007.3 hPa West 21.9 km/h 34.3 km/h 55% 0.0 mm 0 W/m2
06:25 12.0 °C 3.7 °C 1007.3 hPa West 24.5 km/h 36.7 km/h 57% 0.0 mm 0 W/m2
06:30 11.8 °C 4.1 °C 1007.3 hPa WSW 17.2 km/h 39.3 km/h 59% 0.0 mm 0 W/m2
06:35 11.7 °C 4.7 °C 1007.7 hPa WSW 18.3 km/h 39.3 km/h 62% 0.0 mm 0 W/m2
06:40 11.5 °C 4.7 °C 1007.7 hPa WSW 24.5 km/h 34.3 km/h 63% 0.0 mm 0 W/m2
06:45 11.2 °C 4.7 °C 1007.7 hPa West 17.2 km/h 40.4 km/h 64% 0.0 mm 0 W/m2
06:50 10.7 °C 5.1 °C 1007.7 hPa West 8.7 km/h 40.4 km/h 68% 0.0 mm 0 W/m2
06:55 10.8 °C 4.5 °C 1008.0 hPa West 8.7 km/h 35.6 km/h 65% 0.0 mm 0 W/m2
07:00 11.0 °C 4.0 °C 1008.0 hPa West 14.8 km/h 27.0 km/h 62% 0.0 mm 0 W/m2
07:05 11.0 °C 4.0 °C 1008.4 hPa West 15.8 km/h 24.5 km/h 62% 0.0 mm 0 W/m2
07:10 11.0 °C 4.0 °C 1008.0 hPa WNW 11.1 km/h 24.5 km/h 62% 0.0 mm 0 W/m2
07:15 10.9 °C 4.1 °C 1008.4 hPa WNW 11.1 km/h 31.7 km/h 63% 0.0 mm 0 W/m2
07:20 10.8 °C 4.1 °C 1008.4 hPa West 11.1 km/h 31.7 km/h 63% 0.0 mm 0 W/m2
07:25 10.7 °C 3.5 °C 1008.4 hPa WSW 8.7 km/h 27.0 km/h 61% 0.0 mm 0 W/m2
07:30 10.7 °C 3.5 °C 1008.4 hPa West 8.7 km/h 24.5 km/h 61% 0.0 mm 0 W/m2
07:35 10.7 °C 3.5 °C 1008.4 hPa West 7.2 km/h 24.5 km/h 61% 0.0 mm 1 W/m2
07:40 10.7 °C 3.3 °C 1008.7 hPa West 12.2 km/h 30.6 km/h 60% 0.0 mm 3 W/m2
07:45 10.8 °C 3.1 °C 1008.7 hPa West 9.7 km/h 30.6 km/h 59% 0.0 mm 5 W/m2
07:50 10.7 °C 3.3 °C 1008.7 hPa West 8.7 km/h 25.6 km/h 60% 0.0 mm 11 W/m2
07:55 10.7 °C 3.3 °C 1009.0 hPa WSW 11.1 km/h 25.6 km/h 60% 0.0 mm 8 W/m2
08:00 10.7 °C 3.5 °C 1008.7 hPa WSW 11.1 km/h 29.4 km/h 61% 0.0 mm 12 W/m2
08:05 10.7 °C 3.7 °C 1009.0 hPa WSW 7.2 km/h 31.7 km/h 62% 0.0 mm 16 W/m2
08:10 10.8 °C 3.6 °C 1009.0 hPa West 8.7 km/h 31.7 km/h 61% 0.0 mm 20 W/m2
08:15 10.7 °C 3.7 °C 1009.0 hPa West 9.7 km/h 27.0 km/h 62% 0.0 mm 20 W/m2
08:20 10.5 °C 3.8 °C 1009.4 hPa West 12.2 km/h 25.6 km/h 63% 0.0 mm 23 W/m2
08:25 10.3 °C 3.8 °C 1009.4 hPa WNW 12.2 km/h 25.6 km/h 64% 0.0 mm 27 W/m2
08:30 10.2 °C 3.7 °C 1009.4 hPa West 12.2 km/h 27.0 km/h 64% 0.0 mm 46 W/m2
08:35 10.2 °C 3.7 °C 1009.4 hPa West 12.2 km/h 28.0 km/h 64% 0.0 mm 38 W/m2
08:40 10.3 °C 3.8 °C 1009.7 hPa West 8.7 km/h 28.0 km/h 64% 0.0 mm 128 W/m2
08:45 10.5 °C 4.0 °C 1009.7 hPa West 8.7 km/h 20.9 km/h 64% 0.0 mm 122 W/m2
08:50 10.8 °C 4.3 °C 1009.4 hPa WNW 9.7 km/h 20.9 km/h 64% 0.0 mm 147 W/m2
08:55 11.0 °C 4.2 °C 1009.7 hPa West 6.1 km/h 20.9 km/h 63% 0.0 mm 157 W/m2
09:01 11.3 °C 4.5 °C 1009.7 hPa West 6.1 km/h 18.3 km/h 63% 0.0 mm 168 W/m2
09:06 11.6 °C 4.6 °C 1009.7 hPa West 5.0 km/h 18.3 km/h 62% 0.0 mm 176 W/m2
09:11 11.7 °C 4.7 °C 1009.7 hPa West 6.1 km/h 18.3 km/h 62% 0.0 mm 183 W/m2
09:16 12.0 °C 4.7 °C 1009.7 hPa WNW 6.1 km/h 14.8 km/h 61% 0.0 mm 191 W/m2
09:21 12.1 °C 4.3 °C 1009.7 hPa West 7.2 km/h 18.3 km/h 59% 0.0 mm 199 W/m2
09:26 12.3 °C 4.3 °C 1010.0 hPa West 11.1 km/h 19.5 km/h 58% 0.0 mm 205 W/m2
09:31 12.4 °C 4.1 °C 1010.0 hPa West 11.1 km/h 23.3 km/h 57% 0.0 mm 213 W/m2
09:36 12.6 °C 4.3 °C 1010.0 hPa West 8.7 km/h 23.3 km/h 57% 0.0 mm 217 W/m2
09:41 12.6 °C 4.1 °C 1010.0 hPa West 11.1 km/h 23.3 km/h 56% 0.0 mm 186 W/m2
09:46 12.8 °C 5.0 °C 1010.0 hPa West 11.1 km/h 19.5 km/h 59% 0.0 mm 139 W/m2
09:51 12.6 °C 5.1 °C 1010.4 hPa WNW 8.7 km/h 18.3 km/h 60% 0.0 mm 120 W/m2
09:56 12.5 °C 4.9 °C 1010.4 hPa NW 8.7 km/h 18.3 km/h 60% 0.0 mm 84 W/m2
10:01 12.4 °C 5.1 °C 1010.4 hPa NW 9.7 km/h 21.9 km/h 61% 0.0 mm 87 W/m2
10:06 12.6 °C 5.3 °C 1010.4 hPa NW 15.8 km/h 21.9 km/h 61% 0.0 mm 85 W/m2
10:11 12.7 °C 5.4 °C 1010.7 hPa WNW 11.1 km/h 19.5 km/h 61% 0.0 mm 76 W/m2
10:16 12.8 °C 5.2 °C 1010.7 hPa West 8.7 km/h 20.9 km/h 60% 0.0 mm 69 W/m2
10:21 13.0 °C 4.7 °C 1010.7 hPa West 7.2 km/h 20.9 km/h 57% 0.0 mm 67 W/m2
10:26 13.3 °C 4.7 °C 1010.7 hPa WSW 12.2 km/h 24.5 km/h 56% 0.0 mm 65 W/m2
10:31 13.0 °C 4.2 °C 1011.1 hPa WSW 14.8 km/h 27.0 km/h 55% 0.0 mm 62 W/m2
10:36 13.0 °C 3.9 °C 1010.7 hPa West 14.8 km/h 27.0 km/h 54% 0.0 mm 58 W/m2
10:41 13.1 °C 4.0 °C 1011.1 hPa West 9.7 km/h 23.3 km/h 54% 0.0 mm 56 W/m2
10:46 13.0 °C 3.4 °C 1010.7 hPa West 14.8 km/h 25.6 km/h 52% 0.0 mm 54 W/m2
10:51 13.1 °C 3.4 °C 1011.1 hPa West 11.1 km/h 29.4 km/h 52% 0.0 mm 53 W/m2
10:56 13.2 °C 3.8 °C 1011.1 hPa West 5.0 km/h 29.4 km/h 53% 0.0 mm 53 W/m2
11:01 13.4 °C 3.5 °C 1010.7 hPa West 11.1 km/h 23.3 km/h 51% 0.0 mm 53 W/m2
11:06 13.6 °C 3.7 °C 1011.1 hPa West 11.1 km/h 23.3 km/h 51% 0.0 mm 52 W/m2
11:11 13.6 °C 3.1 °C 1011.4 hPa WSW 17.2 km/h 24.5 km/h 49% 0.0 mm 52 W/m2
11:16 13.7 °C 2.9 °C 1011.1 hPa West 12.2 km/h 24.5 km/h 48% 0.0 mm 52 W/m2
11:21 13.7 °C 2.0 °C 1011.4 hPa WNW 13.4 km/h 25.6 km/h 45% 0.0 mm 52 W/m2
11:26 13.7 °C 2.6 °C 1011.4 hPa West 9.7 km/h 25.6 km/h 47% 0.0 mm 51 W/m2
11:31 13.9 °C 2.5 °C 1011.4 hPa West 13.4 km/h 28.0 km/h 46% 0.0 mm 52 W/m2
11:36 13.9 °C 2.2 °C 1011.4 hPa West 15.8 km/h 28.0 km/h 45% 0.0 mm 52 W/m2
11:41 13.9 °C 2.2 °C 1011.4 hPa West 17.2 km/h 31.7 km/h 45% 0.0 mm 52 W/m2
11:46 13.7 °C 2.3 °C 1011.4 hPa West 11.1 km/h 40.4 km/h 46% 0.0 mm 52 W/m2
11:51 13.7 °C 2.3 °C 1011.4 hPa West 15.8 km/h 40.4 km/h 46% 0.0 mm 52 W/m2
11:56 13.7 °C 2.3 °C 1011.4 hPa WSW 14.8 km/h 31.7 km/h 46% 0.0 mm 53 W/m2
12:01 13.7 °C 2.6 °C 1011.4 hPa West 15.8 km/h 33.1 km/h 47% 0.0 mm 53 W/m2
12:06 13.9 °C 2.8 °C 1011.4 hPa West 12.2 km/h 33.1 km/h 47% 0.0 mm 53 W/m2
12:11 14.0 °C 2.6 °C 1011.4 hPa WSW 7.2 km/h 30.6 km/h 46% 0.0 mm 52 W/m2
12:29 14.2 °C 3.1 °C 1011.7 hPa WSW 15.8 km/h 33.1 km/h 47% 0.0 mm 58 W/m2
12:34 14.0 °C 3.2 °C 1011.7 hPa WSW 13.4 km/h 30.6 km/h 48% 0.0 mm 57 W/m2
12:39 14.0 °C 3.4 °C 1011.4 hPa WSW 19.5 km/h 33.1 km/h 49% 0.0 mm 59 W/m2
12:44 14.0 °C 3.2 °C 1011.7 hPa WSW 28.0 km/h 33.1 km/h 48% 0.0 mm 74 W/m2
12:49 14.0 °C 3.4 °C 1011.7 hPa WSW 20.9 km/h 33.1 km/h 49% 0.0 mm 95 W/m2
12:54 13.7 °C 3.4 °C 1011.7 hPa WSW 11.1 km/h 33.1 km/h 50% 0.0 mm 110 W/m2
13:00 14.4 °C 3.6 °C 1011.7 hPa WSW 17.2 km/h 33.1 km/h 48% 0.0 mm 133 W/m2
13:05 14.0 °C 3.2 °C 1012.1 hPa WSW 14.8 km/h 31.7 km/h 48% 0.0 mm 137 W/m2
13:25 13.6 °C 2.5 °C 1011.7 hPa West 11.1 km/h 30.6 km/h 47% 0.0 mm 98 W/m2
13:30 13.5 °C 2.1 °C 1011.7 hPa West 11.1 km/h 29.4 km/h 46% 0.0 mm 79 W/m2
13:35 13.4 °C 2.0 °C 1011.7 hPa WNW 11.1 km/h 19.5 km/h 46% 0.0 mm 95 W/m2
13:40 13.7 °C 1.7 °C 1012.1 hPa West 18.3 km/h 28.0 km/h 44% 0.0 mm 95 W/m2
13:45 14.3 °C 1.2 °C 1012.1 hPa WNW 15.8 km/h 28.0 km/h 41% 0.0 mm 88 W/m2
13:51 13.6 °C 0.9 °C 1012.1 hPa WNW 13.4 km/h 20.9 km/h 42% 0.0 mm 91 W/m2
13:56 12.7 °C 0.4 °C 1012.1 hPa WNW 14.8 km/h 25.6 km/h 43% 0.0 mm 103 W/m2
14:01 12.6 °C 1.0 °C 1012.1 hPa NW 15.8 km/h 25.6 km/h 45% 0.0 mm 96 W/m2
14:06 12.3 °C 0.4 °C 1012.1 hPa WNW 14.8 km/h 24.5 km/h 44% 0.0 mm 148 W/m2
14:11 12.3 °C 0.7 °C 1012.1 hPa West 9.7 km/h 28.0 km/h 45% 0.0 mm 235 W/m2
14:16 12.8 °C 1.4 °C 1012.1 hPa West 13.4 km/h 28.0 km/h 46% 0.0 mm 229 W/m2
14:21 13.3 °C 1.9 °C 1012.1 hPa WNW 11.1 km/h 18.3 km/h 46% 0.0 mm 245 W/m2
14:26 13.9 °C 2.2 °C 1012.1 hPa West 9.7 km/h 18.3 km/h 45% 0.0 mm 214 W/m2
14:31 13.7 °C 2.0 °C 1012.1 hPa West 9.7 km/h 17.2 km/h 45% 0.0 mm 233 W/m2
14:36 13.7 °C 2.0 °C 1012.1 hPa West 5.0 km/h 19.5 km/h 45% 0.0 mm 227 W/m2
14:41 13.7 °C 2.0 °C 1012.4 hPa West 7.2 km/h 19.5 km/h 45% 0.0 mm 220 W/m2
14:46 13.9 °C 2.2 °C 1012.4 hPa West 7.2 km/h 19.5 km/h 45% 0.0 mm 213 W/m2
14:51 14.0 °C 1.6 °C 1012.4 hPa West 9.7 km/h 19.5 km/h 43% 0.0 mm 205 W/m2
14:56 13.6 °C 1.3 °C 1012.4 hPa West 9.7 km/h 21.9 km/h 43% 0.0 mm 197 W/m2
15:01 13.6 °C 1.9 °C 1012.4 hPa West 8.7 km/h 21.9 km/h 45% 0.0 mm 185 W/m2
15:06 13.7 °C 2.0 °C 1012.4 hPa West 11.1 km/h 19.5 km/h 45% 0.0 mm 169 W/m2
15:11 13.7 °C 2.0 °C 1012.4 hPa West 8.7 km/h 19.5 km/h 45% 0.0 mm 155 W/m2
15:16 13.7 °C 2.0 °C 1012.8 hPa West 5.0 km/h 17.2 km/h 45% 0.0 mm 137 W/m2
15:21 13.7 °C 2.0 °C 1012.8 hPa West 6.1 km/h 15.8 km/h 45% 0.0 mm 128 W/m2
15:26 13.9 °C 2.2 °C 1012.8 hPa West 5.0 km/h 14.8 km/h 45% 0.0 mm 120 W/m2
15:31 13.7 °C 2.0 °C 1013.1 hPa WSW 9.7 km/h 24.5 km/h 45% 0.0 mm 112 W/m2
15:36 13.3 °C 1.9 °C 1012.8 hPa WSW 8.7 km/h 24.5 km/h 46% 0.0 mm 103 W/m2
15:41 13.2 °C 2.1 °C 1013.1 hPa WSW 6.1 km/h 20.9 km/h 47% 0.0 mm 93 W/m2
15:46 13.3 °C 2.2 °C 1013.1 hPa West 7.2 km/h 20.9 km/h 47% 0.0 mm 84 W/m2
15:51 13.3 °C 2.2 °C 1013.1 hPa West 11.1 km/h 20.9 km/h 47% 0.0 mm 74 W/m2
15:56 12.9 °C 1.9 °C 1013.1 hPa WSW 9.7 km/h 20.9 km/h 47% 0.0 mm 64 W/m2
16:01 12.9 °C 2.2 °C 1013.1 hPa West 3.5 km/h 18.3 km/h 48% 0.0 mm 56 W/m2
16:06 13.0 °C 1.9 °C 1013.1 hPa West 8.7 km/h 18.3 km/h 47% 0.0 mm 48 W/m2
16:11 12.8 °C 2.3 °C 1013.1 hPa West 6.1 km/h 12.2 km/h 49% 0.0 mm 40 W/m2
16:16 12.7 °C 2.3 °C 1013.1 hPa West 8.7 km/h 13.4 km/h 49% 0.0 mm 33 W/m2
16:21 12.3 °C 2.2 °C 1013.1 hPa West 3.5 km/h 18.3 km/h 50% 0.0 mm 28 W/m2
16:26 12.3 °C 2.4 °C 1013.4 hPa West 5.0 km/h 18.3 km/h 51% 0.0 mm 22 W/m2
16:31 12.1 °C 2.3 °C 1013.4 hPa West 5.0 km/h 9.7 km/h 51% 0.0 mm 18 W/m2
16:36 11.9 °C 2.3 °C 1013.4 hPa West 3.5 km/h 11.1 km/h 52% 0.0 mm 11 W/m2
16:41 11.6 °C 2.1 °C 1013.4 hPa West 5.0 km/h 11.1 km/h 52% 0.0 mm 7 W/m2
16:46 11.1 °C 1.9 °C 1013.4 hPa West 5.0 km/h 8.7 km/h 53% 0.0 mm 4 W/m2
16:51 10.8 °C 2.1 °C 1013.4 hPa WNW 2.6 km/h 8.7 km/h 55% 0.0 mm 1 W/m2
16:56 10.6 °C 2.2 °C 1013.4 hPa WNW 5.0 km/h 11.1 km/h 56% 0.0 mm 0 W/m2
17:01 10.5 °C 2.3 °C 1013.4 hPa WNW 7.2 km/h 11.1 km/h 57% 0.0 mm 0 W/m2
17:06 10.4 °C 2.3 °C 1013.4 hPa NW 7.2 km/h 12.2 km/h 57% 0.0 mm 0 W/m2
17:11 10.2 °C 2.3 °C 1013.4 hPa NW 3.5 km/h 12.2 km/h 58% 0.0 mm 0 W/m2
17:16 10.0 °C 2.3 °C 1013.4 hPa NW 6.1 km/h 9.7 km/h 59% 0.0 mm 0 W/m2
17:21 9.8 °C 2.7 °C 1013.4 hPa NW 5.0 km/h 9.7 km/h 61% 0.0 mm 0 W/m2
17:26 9.5 °C 2.8 °C 1013.8 hPa NW 6.1 km/h 9.7 km/h 63% 0.0 mm 0 W/m2
17:31 9.3 °C 2.8 °C 1013.8 hPa NW 6.1 km/h 9.7 km/h 64% 0.0 mm 0 W/m2
17:36 9.1 °C 2.7 °C 1013.8 hPa NW 6.1 km/h 9.7 km/h 64% 0.0 mm 0 W/m2
17:41 8.9 °C 2.9 °C 1013.8 hPa NW 6.1 km/h 9.7 km/h 66% 0.0 mm 0 W/m2
17:46 8.7 °C 2.9 °C 1014.1 hPa NW 3.5 km/h 8.7 km/h 67% 0.0 mm 0 W/m2
18:03 8.4 °C 2.8 °C 1014.4 hPa NW 5.0 km/h 9.7 km/h 68% 0.0 mm 0 W/m2
18:08 8.4 °C 2.8 °C 1014.4 hPa NW 5.0 km/h 9.7 km/h 68% 0.0 mm 0 W/m2
18:13 8.5 °C 2.9 °C 1014.4 hPa NW 6.1 km/h 9.7 km/h 68% 0.0 mm 0 W/m2
18:18 8.5 °C 2.9 °C 1014.8 hPa NW 5.0 km/h 9.7 km/h 68% 0.0 mm 0 W/m2
18:23 8.6 °C 2.8 °C 1014.8 hPa WNW 3.5 km/h 15.8 km/h 67% 0.0 mm 0 W/m2
18:28 9.4 °C 3.2 °C 1014.8 hPa West 6.1 km/h 15.8 km/h 65% 0.0 mm 0 W/m2
18:33 9.8 °C 3.1 °C 1014.8 hPa West 6.1 km/h 14.8 km/h 63% 0.0 mm 0 W/m2
18:38 10.0 °C 2.8 °C 1014.8 hPa West 3.5 km/h 15.8 km/h 61% 0.0 mm 0 W/m2
18:43 10.0 °C 2.8 °C 1014.8 hPa West 6.1 km/h 15.8 km/h 61% 0.0 mm 0 W/m2
18:48 10.1 °C 3.4 °C 1015.1 hPa WSW 13.4 km/h 20.9 km/h 63% 0.0 mm 0 W/m2
18:53 10.5 °C 4.0 °C 1015.1 hPa WSW 15.8 km/h 25.6 km/h 64% 0.0 mm 0 W/m2
18:58 10.8 °C 4.1 °C 1015.1 hPa SW 12.2 km/h 33.1 km/h 63% 0.0 mm 0 W/m2
19:03 10.8 °C 4.1 °C 1015.5 hPa SW 21.9 km/h 34.3 km/h 63% 0.0 mm 0 W/m2
19:08 10.9 °C 4.1 °C 1015.5 hPa SW 15.8 km/h 34.3 km/h 63% 0.0 mm 0 W/m2
19:13 10.7 °C 3.9 °C 1015.5 hPa SW 15.8 km/h 34.3 km/h 63% 0.0 mm 0 W/m2
19:18 10.7 °C 3.9 °C 1015.5 hPa SW 20.9 km/h 28.0 km/h 63% 0.0 mm 0 W/m2
19:23 10.7 °C 3.9 °C 1015.5 hPa SW 20.9 km/h 31.7 km/h 63% 0.0 mm 0 W/m2
19:28 10.7 °C 3.3 °C 1015.8 hPa WSW 21.9 km/h 31.7 km/h 60% 0.0 mm 0 W/m2
19:33 10.7 °C 3.3 °C 1015.8 hPa SW 17.2 km/h 39.3 km/h 60% 0.0 mm 0 W/m2
19:38 10.7 °C 3.0 °C 1016.1 hPa WSW 23.3 km/h 39.3 km/h 59% 0.0 mm 0 W/m2
19:43 10.7 °C 3.3 °C 1016.1 hPa WSW 18.3 km/h 33.1 km/h 60% 0.0 mm 0 W/m2
19:48 10.7 °C 3.7 °C 1016.1 hPa WSW 12.2 km/h 31.7 km/h 62% 0.0 mm 0 W/m2
19:53 10.7 °C 3.3 °C 1016.1 hPa WSW 18.3 km/h 34.3 km/h 60% 0.0 mm 0 W/m2
19:58 10.7 °C 2.6 °C 1016.1 hPa SW 20.9 km/h 34.3 km/h 57% 0.0 mm 0 W/m2
20:03 10.7 °C 2.8 °C 1016.1 hPa SW 21.9 km/h 34.3 km/h 58% 0.0 mm 0 W/m2
20:08 10.8 °C 1.9 °C 1016.1 hPa SW 23.3 km/h 43.9 km/h 54% 0.0 mm 0 W/m2
20:13 10.7 °C 2.3 °C 1016.5 hPa SW 34.3 km/h 43.9 km/h 56% 0.0 mm 0 W/m2
20:18 10.8 °C 2.1 °C 1016.5 hPa SW 21.9 km/h 43.9 km/h 55% 0.0 mm 0 W/m2
20:23 10.7 °C 2.1 °C 1016.5 hPa SW 25.6 km/h 52.6 km/h 55% 0.0 mm 0 W/m2
20:39 10.5 °C 2.6 °C 1016.8 hPa WSW 23.3 km/h 47.9 km/h 58% 0.0 mm 0 W/m2
20:44 10.5 °C 3.1 °C 1016.8 hPa SW 35.6 km/h 54.1 km/h 60% 0.0 mm 0 W/m2
20:49 10.4 °C 2.7 °C 1016.8 hPa SSW 25.6 km/h 54.1 km/h 59% 0.0 mm 0 W/m2
20:54 10.4 °C 3.0 °C 1016.8 hPa SSW 30.6 km/h 50.0 km/h 60% 0.0 mm 0 W/m2
20:59 10.3 °C 3.3 °C 1016.8 hPa SSW 28.0 km/h 46.5 km/h 62% 0.0 mm 0 W/m2
21:04 10.3 °C 3.1 °C 1016.8 hPa SW 19.5 km/h 37.8 km/h 61% 0.0 mm 0 W/m2
21:09 10.3 °C 2.7 °C 1016.8 hPa SW 20.9 km/h 37.8 km/h 59% 0.0 mm 0 W/m2
21:14 10.2 °C 3.0 °C 1016.8 hPa SW 14.8 km/h 39.3 km/h 61% 0.0 mm 0 W/m2
21:19 10.2 °C 3.2 °C 1017.2 hPa SW 17.2 km/h 39.3 km/h 62% 0.0 mm 0 W/m2
21:24 10.2 °C 3.5 °C 1017.2 hPa SW 18.3 km/h 34.3 km/h 63% 0.0 mm 0 W/m2
21:29 10.3 °C 3.1 °C 1017.2 hPa SW 29.4 km/h 37.8 km/h 61% 0.0 mm 0 W/m2
21:34 10.2 °C 2.8 °C 1017.5 hPa WSW 33.1 km/h 43.9 km/h 60% 0.0 mm 0 W/m2
21:39 10.3 °C 2.7 °C 1017.5 hPa SW 30.6 km/h 45.4 km/h 59% 0.0 mm 0 W/m2
21:44 10.3 °C 3.1 °C 1017.5 hPa SW 21.9 km/h 45.4 km/h 61% 0.0 mm 0 W/m2
21:49 10.3 °C 2.7 °C 1017.8 hPa SW 28.0 km/h 46.5 km/h 59% 0.0 mm 0 W/m2
21:54 10.2 °C 2.8 °C 1017.5 hPa SW 23.3 km/h 46.5 km/h 60% 0.0 mm 0 W/m2
21:59 10.2 °C 2.6 °C 1017.8 hPa WSW 28.0 km/h 45.4 km/h 59% 0.0 mm 0 W/m2
22:04 10.2 °C 2.8 °C 1017.8 hPa SW 17.2 km/h 45.4 km/h 60% 0.0 mm 0 W/m2
22:09 10.2 °C 3.2 °C 1017.8 hPa WSW 23.3 km/h 36.7 km/h 62% 0.0 mm 0 W/m2
22:14 10.3 °C 2.7 °C 1018.2 hPa West 31.7 km/h 46.5 km/h 59% 0.0 mm 0 W/m2
22:19 10.2 °C 2.3 °C 1018.2 hPa WSW 29.4 km/h 57.6 km/h 58% 0.0 mm 0 W/m2
22:24 10.2 °C 2.8 °C 1018.2 hPa SW 25.6 km/h 57.6 km/h 60% 0.0 mm 0 W/m2
22:29 10.0 °C 3.3 °C 1018.2 hPa WSW 35.6 km/h 47.9 km/h 63% 0.0 mm 0 W/m2
22:34 10.1 °C 3.4 °C 1018.2 hPa WSW 34.3 km/h 46.5 km/h 63% 0.0 mm 0 W/m2
22:39 10.1 °C 3.6 °C 1018.2 hPa SW 24.5 km/h 48.9 km/h 64% 0.0 mm 0 W/m2
22:44 10.0 °C 3.5 °C 1018.2 hPa SW 19.5 km/h 48.9 km/h 64% 0.0 mm 0 W/m2
22:49 10.0 °C 3.5 °C 1018.2 hPa SW 39.3 km/h 52.6 km/h 64% 0.0 mm 0 W/m2
22:54 9.9 °C 3.4 °C 1018.2 hPa SW 27.0 km/h 52.6 km/h 64% 0.0 mm 0 W/m2
22:59 9.9 °C 3.6 °C 1018.2 hPa SW 28.0 km/h 52.6 km/h 65% 0.0 mm 0 W/m2
23:04 9.9 °C 4.1 °C 1018.5 hPa SW 20.9 km/h 52.6 km/h 67% 0.0 mm 0 W/m2
23:09 9.9 °C 3.6 °C 1018.5 hPa SW 31.7 km/h 52.6 km/h 65% 0.0 mm 0 W/m2
23:14 10.0 °C 3.7 °C 1018.5 hPa SW 30.6 km/h 61.1 km/h 65% 0.0 mm 0 W/m2
23:19 9.9 °C 3.8 °C 1018.8 hPa SW 28.0 km/h 61.1 km/h 66% 0.0 mm 0 W/m2
23:24 9.9 °C 3.6 °C 1018.5 hPa SW 45.4 km/h 58.7 km/h 65% 0.3 mm 0 W/m2
23:29 9.9 °C 3.6 °C 1018.8 hPa SW 30.6 km/h 58.7 km/h 65% 0.3 mm 0 W/m2
23:34 9.7 °C 3.7 °C 1018.8 hPa SW 30.6 km/h 58.7 km/h 66% 0.3 mm 0 W/m2
23:39 9.6 °C 3.8 °C 1018.5 hPa SW 25.6 km/h 50.0 km/h 67% 0.3 mm 0 W/m2
23:44 9.5 °C 3.7 °C 1018.5 hPa SW 20.9 km/h 42.8 km/h 67% 0.3 mm 0 W/m2
23:49 9.4 °C 3.6 °C 1018.5 hPa SW 23.3 km/h 43.9 km/h 67% 0.3 mm 0 W/m2
23:54 9.4 °C 3.8 °C 1018.5 hPa SW 23.3 km/h 43.9 km/h 68% 0.3 mm 0 W/m2
23:59 9.4 °C 3.6 °C 1018.8 hPa SW 34.3 km/h 51.5 km/h 67% 0.3 mm 0 W/m2
Northern Hawkes Bay. New Zealand Historic Data
Compliments of Weather Underground - 2 mb